createdAt,value
2019-03-20T00:00:26.966Z,58.90
2019-03-20T00:01:08.065Z,65.40
2019-03-20T00:01:44.824Z,60.03
2019-03-20T00:02:21.008Z,57.53
2019-03-20T00:02:57.393Z,57.78
2019-03-20T00:03:34.086Z,57.53
2019-03-20T00:04:10.415Z,56.10
2019-03-20T00:04:49.905Z,54.75
2019-03-20T00:05:23.720Z,56.18
2019-03-20T00:05:59.677Z,54.10
2019-03-20T00:06:37.365Z,53.17
2019-03-20T00:07:13.405Z,56.70
2019-03-20T00:07:49.250Z,48.23
2019-03-20T00:08:25.617Z,50.65
2019-03-20T00:09:01.464Z,51.58
2019-03-20T00:09:37.340Z,47.83
2019-03-20T00:10:13.677Z,47.58
2019-03-20T00:10:50.412Z,47.60
2019-03-20T00:11:26.628Z,47.83
2019-03-20T00:12:02.894Z,45.70
2019-03-20T00:12:39.464Z,47.00
2019-03-20T00:13:15.849Z,46.88
2019-03-20T00:13:52.236Z,44.03
2019-03-20T00:14:28.458Z,43.75
2019-03-20T00:15:04.604Z,43.17
2019-03-20T00:15:41.105Z,44.03
2019-03-20T00:16:17.360Z,43.40
2019-03-20T00:16:53.794Z,41.48
2019-03-20T00:17:29.826Z,42.95
2019-03-20T00:18:05.793Z,43.02
2019-03-20T00:18:42.162Z,40.33
2019-03-20T00:19:18.723Z,41.77
2019-03-20T00:19:55.013Z,41.13
2019-03-20T00:20:31.613Z,42.08
2019-03-20T00:21:08.101Z,41.08
2019-03-20T00:21:45.020Z,39.53
2019-03-20T00:22:20.963Z,38.38
2019-03-20T00:22:57.391Z,36.68
2019-03-20T00:23:33.694Z,35.95
2019-03-20T00:24:10.129Z,38.25
2019-03-20T00:24:46.723Z,38.20
2019-03-20T00:25:23.696Z,38.28
2019-03-20T00:26:00.179Z,39.83
2019-03-20T00:26:36.082Z,36.48
2019-03-20T00:27:12.637Z,38.92
2019-03-20T00:27:51.015Z,37.40
2019-03-20T00:28:26.984Z,35.45
2019-03-20T00:29:03.087Z,34.23
2019-03-20T00:29:38.933Z,37.00
2019-03-20T00:30:15.660Z,38.05
2019-03-20T00:30:51.419Z,37.98
2019-03-20T00:31:28.610Z,35.90
2019-03-20T00:32:05.729Z,37.13
2019-03-20T00:32:41.473Z,40.65
2019-03-20T00:33:17.305Z,38.85
2019-03-20T00:33:53.362Z,38.65
2019-03-20T00:34:30.017Z,40.25
2019-03-20T00:35:06.698Z,40.88
2019-03-20T00:35:42.645Z,43.78
2019-03-20T00:36:19.008Z,50.48
2019-03-20T00:36:55.222Z,47.60
2019-03-20T00:37:31.050Z,46.58
2019-03-20T00:38:07.244Z,48.25
2019-03-20T00:38:43.776Z,48.25
2019-03-20T00:39:19.636Z,47.58
2019-03-20T00:39:55.653Z,45.63
2019-03-20T00:40:31.722Z,46.05
2019-03-20T00:41:07.792Z,42.75
2019-03-20T00:41:43.781Z,40.63
2019-03-20T00:42:19.833Z,37.98
2019-03-20T00:42:55.783Z,38.53
2019-03-20T00:43:32.066Z,32.80
2019-03-20T00:44:08.095Z,39.95
2019-03-20T00:44:44.064Z,34.18
2019-03-20T00:45:20.452Z,34.92
2019-03-20T00:45:56.821Z,37.13
2019-03-20T00:46:32.650Z,34.33
2019-03-20T00:47:08.718Z,34.27
2019-03-20T00:47:44.712Z,41.02
2019-03-20T00:48:21.003Z,39.88
2019-03-20T00:48:57.451Z,41.90
2019-03-20T00:49:33.661Z,45.80
2019-03-20T00:50:12.056Z,40.00
2019-03-20T00:50:48.498Z,39.78
2019-03-20T00:51:24.943Z,41.05
2019-03-20T00:52:01.281Z,47.62
2019-03-20T00:52:37.676Z,45.43
2019-03-20T00:53:14.042Z,49.10
2019-03-20T00:53:50.256Z,44.27
2019-03-20T00:54:28.497Z,42.93
2019-03-20T00:55:04.764Z,43.00
2019-03-20T00:55:40.729Z,42.13
2019-03-20T00:56:16.960Z,43.42
2019-03-20T00:56:53.428Z,41.83
2019-03-20T00:57:29.432Z,42.43
2019-03-20T00:58:05.743Z,40.10
2019-03-20T00:58:42.735Z,43.30
2019-03-20T00:59:18.913Z,42.88
2019-03-20T00:59:54.954Z,45.60
2019-03-20T01:00:32.152Z,42.23
2019-03-20T01:01:08.876Z,43.63
2019-03-20T01:01:44.889Z,44.85
2019-03-20T01:02:21.262Z,41.75
2019-03-20T01:02:57.054Z,38.48
2019-03-20T01:03:32.996Z,33.73
2019-03-20T01:04:09.048Z,38.08
2019-03-20T01:04:45.170Z,34.92
2019-03-20T01:05:21.274Z,36.60
2019-03-20T01:05:57.300Z,42.05
2019-03-20T01:06:33.803Z,41.20
2019-03-20T01:07:11.181Z,40.08
2019-03-20T01:07:47.230Z,40.67
2019-03-20T01:08:23.596Z,39.75
2019-03-20T01:08:59.874Z,42.65
2019-03-20T01:09:36.314Z,40.28
2019-03-20T01:10:14.999Z,42.05
2019-03-20T01:10:50.977Z,42.75
2019-03-20T01:11:27.124Z,43.73
2019-03-20T01:12:02.933Z,43.78
2019-03-20T01:12:38.864Z,40.33
2019-03-20T01:13:14.870Z,39.67
2019-03-20T01:13:50.987Z,39.73
2019-03-20T01:14:26.801Z,39.10
2019-03-20T01:15:02.676Z,40.55
2019-03-20T01:15:38.597Z,42.78
2019-03-20T01:16:14.342Z,45.70
2019-03-20T01:16:50.906Z,52.53
2019-03-20T01:17:26.889Z,54.73
2019-03-20T01:18:03.076Z,58.00
2019-03-20T01:18:39.276Z,59.03
2019-03-20T01:19:15.454Z,55.28
2019-03-20T01:19:51.621Z,50.60
2019-03-20T01:20:27.786Z,50.65
2019-03-20T01:21:04.132Z,47.30
2019-03-20T01:21:40.291Z,47.88
2019-03-20T01:22:16.402Z,46.95
2019-03-20T01:22:52.321Z,50.80
2019-03-20T01:23:28.209Z,48.38
2019-03-20T01:24:04.103Z,44.90
2019-03-20T01:24:39.915Z,49.77
2019-03-20T01:25:16.723Z,47.45
2019-03-20T01:25:52.437Z,46.83
2019-03-20T01:26:28.698Z,42.03
2019-03-20T01:27:04.697Z,42.50
2019-03-20T01:27:40.360Z,47.55
2019-03-20T01:28:16.150Z,57.62
2019-03-20T01:28:52.322Z,57.23
2019-03-20T01:29:28.661Z,63.52
2019-03-20T01:30:04.525Z,79.10
2019-03-20T01:30:40.850Z,63.00
2019-03-20T01:31:16.994Z,68.90
2019-03-20T01:31:53.237Z,74.27
2019-03-20T01:32:29.509Z,69.72
2019-03-20T01:33:07.567Z,68.42
2019-03-20T01:33:43.823Z,67.10
2019-03-20T01:34:19.676Z,57.98
2019-03-20T01:34:55.391Z,62.33
2019-03-20T01:35:31.303Z,58.75
2019-03-20T01:36:07.454Z,62.78
2019-03-20T01:36:43.700Z,57.08
2019-03-20T01:37:19.684Z,48.83
2019-03-20T01:37:55.881Z,47.27
2019-03-20T01:38:31.890Z,46.85
2019-03-20T01:39:08.956Z,52.70
2019-03-20T01:39:44.797Z,50.67
2019-03-20T01:40:20.961Z,50.98
2019-03-20T01:40:57.010Z,50.30
2019-03-20T01:41:37.978Z,49.73
2019-03-20T01:42:10.508Z,48.10
2019-03-20T01:42:46.441Z,46.18
2019-03-20T01:43:22.106Z,47.85
2019-03-20T01:43:57.947Z,46.55
2019-03-20T01:44:33.892Z,45.95
2019-03-20T01:45:10.379Z,45.67
2019-03-20T01:45:46.194Z,46.48
2019-03-20T01:46:22.272Z,54.45
2019-03-20T01:46:58.011Z,61.28
2019-03-20T01:47:34.122Z,51.80
2019-03-20T01:48:09.952Z,46.55
2019-03-20T01:48:46.030Z,48.30
2019-03-20T01:49:21.955Z,44.80
2019-03-20T01:49:58.402Z,47.67
2019-03-20T01:50:34.455Z,63.87
2019-03-20T01:51:23.296Z,49.85
2019-03-20T01:51:59.462Z,43.50
2019-03-20T01:52:35.496Z,47.08
2019-03-20T01:53:11.248Z,47.95
2019-03-20T01:53:46.982Z,50.63
2019-03-20T01:54:23.376Z,48.28
2019-03-20T01:54:59.689Z,48.48
2019-03-20T01:55:35.699Z,47.60
2019-03-20T01:56:11.606Z,46.88
2019-03-20T01:56:47.461Z,48.75
2019-03-20T01:57:23.396Z,47.38
2019-03-20T01:57:59.632Z,43.87
2019-03-20T01:58:35.682Z,41.45
2019-03-20T01:59:11.674Z,47.80
2019-03-20T01:59:47.783Z,48.33
2019-03-20T02:00:23.511Z,47.35
2019-03-20T02:00:59.511Z,49.25
2019-03-20T02:01:35.366Z,43.30
2019-03-20T02:02:12.169Z,40.83
2019-03-20T02:02:48.053Z,40.88
2019-03-20T02:03:23.802Z,44.05
2019-03-20T02:03:59.478Z,49.05
2019-03-20T02:04:35.407Z,48.95
2019-03-20T02:05:11.838Z,47.08
2019-03-20T02:05:48.143Z,47.08
2019-03-20T02:06:23.808Z,46.80
2019-03-20T02:06:59.877Z,56.28
2019-03-20T02:07:35.791Z,53.90
2019-03-20T02:08:11.373Z,47.27
2019-03-20T02:08:47.388Z,53.63
2019-03-20T02:09:23.370Z,50.83
2019-03-20T02:09:59.762Z,59.15
2019-03-20T02:10:35.689Z,49.20
2019-03-20T02:11:11.648Z,51.98
2019-03-20T02:11:47.873Z,96.10
2019-03-20T02:12:23.773Z,75.28
2019-03-20T02:12:59.849Z,53.02
2019-03-20T02:13:36.019Z,47.38
2019-03-20T02:14:11.846Z,49.05
2019-03-20T02:14:47.990Z,51.45
2019-03-20T02:15:23.925Z,49.77
2019-03-20T02:15:59.866Z,51.20
2019-03-20T02:16:35.638Z,51.05
2019-03-20T02:17:11.671Z,51.37
2019-03-20T02:17:47.698Z,52.80
2019-03-20T02:18:23.608Z,50.48
2019-03-20T02:19:02.847Z,52.98
2019-03-20T02:19:39.258Z,50.67
2019-03-20T02:20:16.645Z,51.70
2019-03-20T02:20:53.035Z,53.70
2019-03-20T02:21:28.870Z,56.77
2019-03-20T02:22:05.033Z,56.58
2019-03-20T02:22:41.198Z,58.00
2019-03-20T02:23:17.138Z,55.23
2019-03-20T02:23:53.323Z,60.48
2019-03-20T02:24:29.188Z,60.45
2019-03-20T02:25:05.471Z,61.02
2019-03-20T02:25:41.642Z,62.53
2019-03-20T02:26:17.629Z,59.40
2019-03-20T02:26:54.677Z,61.33
2019-03-20T02:27:30.487Z,67.42
2019-03-20T02:28:06.176Z,66.30
2019-03-20T02:28:42.076Z,61.45
2019-03-20T02:29:18.118Z,57.45
2019-03-20T02:29:53.936Z,59.73
2019-03-20T02:30:29.995Z,60.33
2019-03-20T02:31:05.761Z,58.23
2019-03-20T02:31:42.071Z,60.48
2019-03-20T02:32:18.095Z,57.20
2019-03-20T02:32:53.929Z,60.08
2019-03-20T02:33:30.146Z,58.13
2019-03-20T02:34:06.931Z,63.20
2019-03-20T02:34:43.066Z,58.65
2019-03-20T02:35:18.920Z,60.33
2019-03-20T02:35:54.906Z,64.37
2019-03-20T02:36:30.819Z,63.17
2019-03-20T02:37:06.901Z,62.65
2019-03-20T02:37:43.236Z,61.02
2019-03-20T02:38:19.141Z,63.63
2019-03-20T02:38:54.913Z,62.40
2019-03-20T02:39:30.668Z,62.60
2019-03-20T02:40:07.131Z,62.00
2019-03-20T02:40:43.426Z,59.08
2019-03-20T02:41:19.255Z,60.98
2019-03-20T02:41:55.948Z,60.80
2019-03-20T02:42:31.794Z,65.72
2019-03-20T02:43:08.003Z,62.30
2019-03-20T02:43:44.464Z,66.47
2019-03-20T02:44:20.541Z,61.75
2019-03-20T02:44:56.349Z,58.13
2019-03-20T02:45:32.416Z,60.30
2019-03-20T02:46:08.219Z,58.02
2019-03-20T02:46:44.297Z,55.23
2019-03-20T02:47:20.512Z,57.33
2019-03-20T02:47:56.360Z,55.85
2019-03-20T02:48:32.330Z,55.67
2019-03-20T02:49:08.200Z,61.33
2019-03-20T02:49:44.137Z,63.63
2019-03-20T02:50:20.019Z,63.28
2019-03-20T02:50:56.108Z,62.58
2019-03-20T02:51:31.747Z,61.45
2019-03-20T02:52:07.906Z,65.87
2019-03-20T02:52:44.156Z,64.75
2019-03-20T02:53:20.311Z,65.90
2019-03-20T02:53:56.528Z,64.80
2019-03-20T02:54:32.899Z,67.12
2019-03-20T02:55:09.875Z,65.30
2019-03-20T02:55:45.697Z,61.65
2019-03-20T02:56:21.568Z,63.87
2019-03-20T02:56:57.827Z,64.20
2019-03-20T02:57:33.854Z,62.95
2019-03-20T02:58:09.604Z,55.78
2019-03-20T02:58:45.437Z,56.10
2019-03-20T02:59:21.745Z,61.23
2019-03-20T02:59:57.930Z,59.75
2019-03-20T03:00:33.888Z,65.28
2019-03-20T03:01:09.761Z,63.55
2019-03-20T03:01:45.935Z,66.12
2019-03-20T03:02:21.847Z,63.73
2019-03-20T03:02:58.037Z,62.70
2019-03-20T03:03:34.017Z,65.22
2019-03-20T03:04:10.569Z,64.60
2019-03-20T03:04:46.522Z,67.42
2019-03-20T03:05:22.634Z,65.65
2019-03-20T03:06:06.805Z,60.60
2019-03-20T03:06:36.593Z,60.55
2019-03-20T03:07:16.106Z,59.33
2019-03-20T03:07:52.939Z,60.65
2019-03-20T03:08:29.036Z,62.48
2019-03-20T03:09:07.216Z,60.25
2019-03-20T03:09:43.427Z,60.58
2019-03-20T03:10:19.896Z,64.65
2019-03-20T03:10:55.915Z,69.70
2019-03-20T03:11:32.431Z,65.52
2019-03-20T03:12:08.644Z,67.03
2019-03-20T03:12:45.029Z,64.50
2019-03-20T03:13:21.056Z,61.63
2019-03-20T03:13:57.557Z,61.15
2019-03-20T03:14:33.388Z,68.52
2019-03-20T03:15:09.815Z,70.55
2019-03-20T03:15:45.526Z,63.63
2019-03-20T03:16:22.015Z,68.05
2019-03-20T03:16:58.426Z,65.35
2019-03-20T03:17:35.316Z,63.00
2019-03-20T03:18:11.707Z,62.03
2019-03-20T03:18:48.044Z,63.95
2019-03-20T03:19:24.389Z,62.10
2019-03-20T03:20:00.253Z,68.30
2019-03-20T03:20:36.861Z,70.47
2019-03-20T03:21:13.360Z,68.75
2019-03-20T03:21:49.466Z,70.40
2019-03-20T03:22:25.859Z,68.50
2019-03-20T03:23:01.880Z,69.05
2019-03-20T03:23:37.742Z,73.83
2019-03-20T03:24:14.115Z,67.30
2019-03-20T03:24:50.885Z,67.12
2019-03-20T03:25:27.163Z,71.62
2019-03-20T03:26:02.928Z,69.12
2019-03-20T03:26:38.953Z,66.87
2019-03-20T03:27:16.468Z,67.62
2019-03-20T03:27:52.762Z,68.15
2019-03-20T03:28:28.956Z,70.75
2019-03-20T03:29:05.488Z,65.40
2019-03-20T03:29:41.558Z,64.80
2019-03-20T03:30:17.840Z,63.95
2019-03-20T03:30:53.880Z,63.42
2019-03-20T03:31:30.304Z,58.13
2019-03-20T03:32:06.700Z,58.35
2019-03-20T03:32:42.858Z,61.18
2019-03-20T03:33:19.626Z,61.90
2019-03-20T03:33:55.481Z,63.02
2019-03-20T03:34:31.203Z,60.23
2019-03-20T03:35:07.451Z,62.17
2019-03-20T03:35:43.317Z,65.00
2019-03-20T03:36:21.605Z,67.55
2019-03-20T03:36:56.768Z,74.12
2019-03-20T03:37:32.710Z,75.25
2019-03-20T03:38:08.650Z,71.75
2019-03-20T03:38:44.698Z,82.53
2019-03-20T03:39:20.758Z,90.20
2019-03-20T03:39:56.822Z,88.90
2019-03-20T03:40:32.876Z,92.30
2019-03-20T03:41:09.082Z,79.03
2019-03-20T03:41:44.833Z,81.40
2019-03-20T03:42:21.102Z,75.87
2019-03-20T03:42:56.870Z,68.33
2019-03-20T03:43:32.502Z,56.48
2019-03-20T03:44:08.823Z,68.10
2019-03-20T03:44:45.280Z,75.25
2019-03-20T03:45:21.448Z,75.75
2019-03-20T03:45:58.921Z,96.47
2019-03-20T03:46:34.774Z,90.97
2019-03-20T03:47:10.775Z,82.82
2019-03-20T03:47:46.977Z,70.62
2019-03-20T03:48:23.494Z,84.10
2019-03-20T03:48:59.646Z,77.92
2019-03-20T03:49:35.376Z,67.62
2019-03-20T03:50:12.426Z,62.98
2019-03-20T03:50:48.602Z,62.08
2019-03-20T03:51:24.506Z,65.30
2019-03-20T03:52:00.463Z,64.65
2019-03-20T03:52:36.139Z,58.60
2019-03-20T03:53:11.897Z,58.17
2019-03-20T03:53:47.877Z,61.92
2019-03-20T03:54:24.038Z,66.35
2019-03-20T03:55:00.494Z,67.62
2019-03-20T03:55:37.088Z,62.13
2019-03-20T03:56:13.162Z,58.78
2019-03-20T03:56:49.428Z,54.80
2019-03-20T03:57:25.612Z,59.48
2019-03-20T03:58:02.388Z,65.57
2019-03-20T03:58:38.354Z,60.35
2019-03-20T03:59:14.249Z,60.23
2019-03-20T03:59:50.065Z,57.80
2019-03-20T04:00:26.069Z,57.85
2019-03-20T04:01:02.321Z,58.08
2019-03-20T04:01:38.197Z,59.73
2019-03-20T04:02:14.415Z,61.90
2019-03-20T04:02:50.666Z,66.30
2019-03-20T04:03:27.026Z,79.53
2019-03-20T04:04:06.345Z,87.90
2019-03-20T04:04:42.373Z,92.75
2019-03-20T04:05:18.570Z,85.10
2019-03-20T04:05:54.459Z,88.62
2019-03-20T04:06:35.999Z,91.67
2019-03-20T04:07:07.802Z,76.33
2019-03-20T04:07:43.659Z,69.27
2019-03-20T04:08:19.537Z,67.55
2019-03-20T04:08:55.468Z,67.03
2019-03-20T04:09:31.707Z,63.90
2019-03-20T04:10:08.679Z,90.25
2019-03-20T04:10:44.704Z,96.90
2019-03-20T04:11:20.405Z,97.33
2019-03-20T04:11:56.459Z,83.10
2019-03-20T04:12:32.166Z,72.75
2019-03-20T04:13:08.148Z,73.67
2019-03-20T04:13:44.153Z,75.52
2019-03-20T04:14:20.072Z,77.10
2019-03-20T04:14:55.827Z,83.07
2019-03-20T04:15:31.895Z,75.20
2019-03-20T04:16:08.106Z,70.78
2019-03-20T04:16:44.087Z,65.12
2019-03-20T04:17:24.991Z,65.28
2019-03-20T04:18:00.968Z,64.85
2019-03-20T04:18:36.704Z,65.47
2019-03-20T04:19:12.644Z,65.70
2019-03-20T04:19:48.710Z,67.10
2019-03-20T04:20:25.042Z,64.22
2019-03-20T04:21:01.027Z,64.17
2019-03-20T04:21:36.790Z,62.50
2019-03-20T04:22:12.453Z,66.05
2019-03-20T04:22:48.442Z,68.80
2019-03-20T04:23:24.539Z,68.07
2019-03-20T04:24:00.651Z,76.42
2019-03-20T04:24:36.782Z,81.42
2019-03-20T04:25:12.994Z,78.52
2019-03-20T04:25:49.094Z,73.70
2019-03-20T04:26:25.086Z,70.65
2019-03-20T04:27:01.390Z,67.70
2019-03-20T04:27:41.430Z,72.62
2019-03-20T04:28:17.416Z,71.33
2019-03-20T04:28:53.311Z,69.00
2019-03-20T04:29:29.462Z,72.95
2019-03-20T04:30:06.050Z,80.38
2019-03-20T04:30:41.715Z,75.15
2019-03-20T04:31:18.111Z,83.97
2019-03-20T04:31:54.171Z,73.60
2019-03-20T04:32:30.113Z,68.87
2019-03-20T04:33:06.082Z,72.15
2019-03-20T04:33:41.724Z,70.45
2019-03-20T04:34:18.203Z,69.15
2019-03-20T04:34:53.974Z,72.03
2019-03-20T04:35:29.949Z,77.90
2019-03-20T04:36:06.017Z,76.02
2019-03-20T04:36:47.474Z,72.80
2019-03-20T04:37:19.926Z,69.40
2019-03-20T04:37:55.978Z,69.55
2019-03-20T04:38:31.692Z,72.70
2019-03-20T04:39:08.839Z,71.20
2019-03-20T04:39:44.858Z,75.20
2019-03-20T04:40:21.174Z,72.17
2019-03-20T04:40:57.040Z,72.82
2019-03-20T04:41:33.294Z,74.32
2019-03-20T04:42:09.066Z,73.17
2019-03-20T04:42:45.331Z,75.15
2019-03-20T04:43:21.646Z,70.22
2019-03-20T04:43:57.434Z,72.82
2019-03-20T04:44:33.308Z,67.05
2019-03-20T04:45:12.268Z,69.62
2019-03-20T04:45:47.012Z,69.07
2019-03-20T04:46:23.076Z,68.35
2019-03-20T04:46:58.936Z,70.32
2019-03-20T04:47:35.059Z,67.95
2019-03-20T04:48:11.083Z,69.47
2019-03-20T04:48:47.374Z,78.97
2019-03-20T04:49:23.336Z,85.75
2019-03-20T04:49:59.273Z,82.62
2019-03-20T04:50:36.131Z,84.85
2019-03-20T04:51:12.052Z,83.70
2019-03-20T04:51:48.174Z,83.58
2019-03-20T04:52:24.230Z,88.25
2019-03-20T04:53:01.162Z,96.17
2019-03-20T04:53:38.608Z,90.62
2019-03-20T04:54:15.081Z,89.60
2019-03-20T04:54:51.789Z,94.83
2019-03-20T04:55:28.659Z,87.08
2019-03-20T04:56:04.444Z,79.85
2019-03-20T04:56:40.510Z,80.65
2019-03-20T04:57:17.104Z,78.10
2019-03-20T04:57:53.946Z,71.67
2019-03-20T04:58:29.881Z,79.87
2019-03-20T04:59:06.436Z,77.25
2019-03-20T04:59:42.323Z,74.12
2019-03-20T05:00:18.471Z,76.62
2019-03-20T05:00:54.344Z,72.10
2019-03-20T05:01:30.480Z,71.10
2019-03-20T05:02:06.954Z,68.40
2019-03-20T05:02:43.059Z,72.87
2019-03-20T05:03:19.124Z,76.57
2019-03-20T05:03:55.830Z,81.75
2019-03-20T05:04:32.309Z,69.42
2019-03-20T05:05:09.972Z,77.15
2019-03-20T05:05:46.084Z,73.25
2019-03-20T05:06:22.796Z,72.17
2019-03-20T05:06:59.363Z,69.27
2019-03-20T05:07:35.769Z,68.22
2019-03-20T05:08:12.045Z,69.25
2019-03-20T05:08:49.540Z,67.55
2019-03-20T05:09:25.808Z,66.12
2019-03-20T05:10:02.299Z,71.00
2019-03-20T05:10:38.603Z,69.20
2019-03-20T05:11:14.553Z,73.60
2019-03-20T05:11:50.576Z,82.05
2019-03-20T05:12:26.835Z,82.65
2019-03-20T05:13:03.579Z,84.05
2019-03-20T05:13:39.404Z,89.07
2019-03-20T05:14:15.784Z,85.80
2019-03-20T05:14:51.903Z,87.10
2019-03-20T05:15:27.674Z,85.00
2019-03-20T05:16:03.880Z,80.85
2019-03-20T05:16:40.085Z,78.95
2019-03-20T05:17:15.915Z,77.80
2019-03-20T05:17:52.146Z,75.67
2019-03-20T05:18:28.713Z,75.83
2019-03-20T05:19:05.285Z,84.17
2019-03-20T05:19:41.357Z,84.05
2019-03-20T05:20:18.247Z,84.70
2019-03-20T05:20:54.348Z,84.52
2019-03-20T05:21:30.678Z,76.82
2019-03-20T05:22:07.183Z,83.40
2019-03-20T05:22:43.233Z,83.92
2019-03-20T05:23:19.054Z,81.28
2019-03-20T05:23:55.017Z,77.25
2019-03-20T05:24:31.071Z,80.15
2019-03-20T05:25:07.315Z,82.42
2019-03-20T05:25:43.286Z,76.55
2019-03-20T05:26:19.892Z,74.55
2019-03-20T05:26:56.585Z,76.22
2019-03-20T05:27:32.948Z,77.03
2019-03-20T05:28:09.265Z,72.58
2019-03-20T05:28:46.013Z,72.12
2019-03-20T05:29:22.602Z,71.87
2019-03-20T05:29:59.420Z,75.22
2019-03-20T05:30:35.209Z,71.53
2019-03-20T05:31:12.103Z,71.87
2019-03-20T05:31:48.049Z,71.07
2019-03-20T05:32:24.451Z,71.33
2019-03-20T05:33:01.017Z,75.72
2019-03-20T05:33:37.296Z,75.95
2019-03-20T05:34:13.602Z,73.10
2019-03-20T05:34:49.534Z,70.80
2019-03-20T05:35:25.547Z,74.37
2019-03-20T05:36:01.737Z,73.22
2019-03-20T05:36:38.434Z,77.95
2019-03-20T05:37:15.023Z,75.00
2019-03-20T05:37:52.030Z,75.08
2019-03-20T05:38:28.834Z,70.37
2019-03-20T05:39:05.649Z,71.35
2019-03-20T05:39:42.085Z,64.97
2019-03-20T05:40:18.386Z,71.12
2019-03-20T05:40:54.932Z,73.17
2019-03-20T05:41:31.184Z,81.95
2019-03-20T05:42:08.159Z,81.67
2019-03-20T05:42:43.650Z,86.00
2019-03-20T05:43:19.270Z,86.82
2019-03-20T05:43:54.702Z,88.60
2019-03-20T05:44:30.151Z,88.50
2019-03-20T05:45:05.892Z,86.63
2019-03-20T05:45:41.834Z,84.47
2019-03-20T05:46:17.238Z,85.87
2019-03-20T05:46:52.701Z,88.37
2019-03-20T05:47:28.157Z,83.10
2019-03-20T05:48:04.105Z,83.17
2019-03-20T05:48:39.607Z,87.95
2019-03-20T05:49:15.043Z,86.17
2019-03-20T05:49:50.345Z,84.67
2019-03-20T05:50:25.898Z,85.80
2019-03-20T05:51:01.435Z,82.92
2019-03-20T05:51:36.825Z,88.67
2019-03-20T05:52:12.177Z,87.90
2019-03-20T05:52:47.702Z,86.72
2019-03-20T05:53:23.144Z,91.40
2019-03-20T05:53:58.569Z,89.37
2019-03-20T05:54:34.108Z,89.62
2019-03-20T05:55:09.877Z,86.70
2019-03-20T05:55:45.197Z,88.00
2019-03-20T05:56:20.775Z,88.22
2019-03-20T05:56:56.387Z,88.90
2019-03-20T05:57:31.881Z,90.15
2019-03-20T05:58:07.393Z,89.32
2019-03-20T05:58:42.935Z,89.85
2019-03-20T05:59:18.452Z,89.42
2019-03-20T05:59:53.892Z,90.47
2019-03-20T06:00:31.773Z,89.62
2019-03-20T06:01:07.298Z,93.17
2019-03-20T06:01:42.787Z,87.95
2019-03-20T06:02:18.190Z,91.65
2019-03-20T06:02:53.491Z,83.25
2019-03-20T06:03:28.918Z,88.45
2019-03-20T06:04:04.479Z,89.05
2019-03-20T06:04:39.770Z,88.65
2019-03-20T06:05:16.217Z,85.62
2019-03-20T06:05:52.257Z,86.47
2019-03-20T06:06:28.185Z,85.87
2019-03-20T06:07:04.075Z,87.50
2019-03-20T06:07:40.261Z,83.90
2019-03-20T06:08:16.470Z,85.25
2019-03-20T06:08:53.131Z,87.10
2019-03-20T06:09:29.118Z,83.70
2019-03-20T06:10:05.612Z,83.52
2019-03-20T06:10:45.929Z,87.75
2019-03-20T06:11:21.974Z,89.20
2019-03-20T06:11:59.645Z,82.67
2019-03-20T06:12:35.614Z,79.07
2019-03-20T06:13:11.762Z,80.53
2019-03-20T06:13:47.976Z,83.07
2019-03-20T06:14:24.540Z,82.60
2019-03-20T06:15:00.707Z,81.02
2019-03-20T06:15:37.294Z,81.97
2019-03-20T06:16:13.307Z,78.55
2019-03-20T06:16:49.131Z,88.15
2019-03-20T06:17:25.026Z,89.75
2019-03-20T06:18:00.984Z,85.30
2019-03-20T06:18:37.486Z,87.42
2019-03-20T06:19:13.797Z,89.35
2019-03-20T06:19:49.516Z,86.63
2019-03-20T06:20:25.187Z,83.75
2019-03-20T06:21:01.643Z,81.37
2019-03-20T06:21:37.859Z,87.92
2019-03-20T06:22:15.527Z,84.87
2019-03-20T06:22:52.754Z,84.87
2019-03-20T06:23:29.457Z,85.35
2019-03-20T06:24:05.609Z,86.05
2019-03-20T06:24:41.886Z,89.42
2019-03-20T06:25:20.921Z,88.42
2019-03-20T06:25:54.822Z,84.70
2019-03-20T06:26:30.358Z,85.77
2019-03-20T06:27:05.859Z,85.42
2019-03-20T06:27:41.489Z,85.42
2019-03-20T06:28:17.096Z,89.07
2019-03-20T06:28:52.800Z,87.50
2019-03-20T06:29:28.399Z,92.60
2019-03-20T06:30:04.522Z,92.55
2019-03-20T06:30:40.095Z,91.17
2019-03-20T06:31:15.681Z,89.72
2019-03-20T06:31:51.302Z,85.87
2019-03-20T06:32:26.798Z,85.85
2019-03-20T06:33:02.407Z,86.05
2019-03-20T06:33:37.870Z,83.85
2019-03-20T06:34:13.442Z,82.00
2019-03-20T06:34:49.174Z,83.45
2019-03-20T06:35:25.024Z,85.03
2019-03-20T06:36:00.656Z,86.35
2019-03-20T06:36:36.447Z,85.60
2019-03-20T06:37:11.897Z,82.92
2019-03-20T06:37:47.365Z,86.15
2019-03-20T06:38:23.418Z,86.67
2019-03-20T06:39:00.332Z,88.82
2019-03-20T06:39:35.871Z,91.55
2019-03-20T06:40:11.958Z,81.67
2019-03-20T06:40:47.469Z,85.17
2019-03-20T06:41:23.076Z,80.95
2019-03-20T06:41:58.542Z,86.85
2019-03-20T06:42:34.017Z,87.33
2019-03-20T06:43:09.716Z,78.07
2019-03-20T06:43:45.280Z,83.10
2019-03-20T06:44:20.835Z,85.47
2019-03-20T06:44:56.378Z,85.92
2019-03-20T06:45:31.927Z,85.00
2019-03-20T06:46:07.741Z,83.42
2019-03-20T06:46:43.357Z,84.07
2019-03-20T06:47:18.919Z,85.62
2019-03-20T06:47:54.446Z,85.67
2019-03-20T06:48:30.065Z,88.30
2019-03-20T06:49:07.762Z,90.55
2019-03-20T06:49:42.963Z,85.00
2019-03-20T06:50:18.614Z,84.55
2019-03-20T06:50:54.108Z,80.57
2019-03-20T06:51:29.627Z,81.63
2019-03-20T06:52:05.208Z,89.62
2019-03-20T06:52:40.857Z,88.50
2019-03-20T06:53:16.542Z,88.45
2019-03-20T06:53:52.185Z,86.95
2019-03-20T06:54:27.890Z,85.35
2019-03-20T06:55:03.624Z,87.95
2019-03-20T06:55:39.360Z,88.87
2019-03-20T06:56:15.034Z,90.60
2019-03-20T06:56:50.662Z,88.55
2019-03-20T06:57:26.323Z,89.60
2019-03-20T06:58:01.994Z,91.30
2019-03-20T06:58:37.532Z,90.12
2019-03-20T07:00:09.163Z,91.85
2019-03-20T07:01:12.820Z,83.47
2019-03-20T07:01:48.268Z,82.70
2019-03-20T07:02:23.752Z,88.05
2019-03-20T07:03:00.205Z,89.28
2019-03-20T07:03:48.428Z,87.27
2019-03-20T07:04:51.523Z,89.15
2019-03-20T07:05:42.465Z,85.25
2019-03-20T07:06:34.170Z,81.60
2019-03-20T07:07:26.588Z,88.12
2019-03-20T07:08:01.747Z,86.28
2019-03-20T07:08:42.115Z,87.90
2019-03-20T07:09:50.883Z,89.65
2019-03-20T07:11:03.267Z,89.62
2019-03-20T07:11:41.287Z,87.62
2019-03-20T07:12:17.319Z,84.83
2019-03-20T07:12:52.884Z,84.28
2019-03-20T07:13:28.653Z,86.02
2019-03-20T07:14:04.114Z,84.85
2019-03-20T07:14:39.633Z,84.15
2019-03-20T07:15:15.196Z,87.47
2019-03-20T07:15:50.727Z,86.90
2019-03-20T07:16:26.390Z,82.60
2019-03-20T07:17:01.965Z,90.90
2019-03-20T07:17:37.421Z,86.67
2019-03-20T07:18:13.109Z,92.08
2019-03-20T07:18:48.611Z,87.45
2019-03-20T07:19:24.156Z,86.40
2019-03-20T07:19:59.997Z,87.33
2019-03-20T07:20:35.613Z,90.75
2019-03-20T07:21:11.301Z,86.47
2019-03-20T07:21:46.887Z,83.75
2019-03-20T07:22:22.467Z,86.02
2019-03-20T07:22:58.063Z,82.37
2019-03-20T07:23:33.677Z,88.03
2019-03-20T07:24:09.236Z,91.70
2019-03-20T07:24:44.951Z,85.22
2019-03-20T07:25:20.691Z,83.05
2019-03-20T07:25:56.253Z,86.40
2019-03-20T07:26:31.895Z,86.87
2019-03-20T07:27:07.701Z,87.47
2019-03-20T07:27:43.305Z,86.20
2019-03-20T07:28:18.884Z,80.85
2019-03-20T07:28:54.391Z,80.47
2019-03-20T07:29:29.861Z,85.77
2019-03-20T07:30:06.518Z,83.37
2019-03-20T07:30:42.033Z,86.67
2019-03-20T07:31:17.668Z,85.90
2019-03-20T07:31:53.247Z,85.92
2019-03-20T07:32:30.060Z,87.75
2019-03-20T07:33:05.952Z,80.12
2019-03-20T07:33:41.456Z,83.42
2019-03-20T07:34:17.187Z,79.70
2019-03-20T07:34:52.818Z,80.20
2019-03-20T07:35:28.468Z,74.82
2019-03-20T07:36:04.080Z,75.47
2019-03-20T07:36:39.710Z,73.37
2019-03-20T07:37:15.276Z,77.90
2019-03-20T07:37:55.801Z,80.32
2019-03-20T07:38:28.331Z,77.32
2019-03-20T07:39:04.864Z,77.20
2019-03-20T07:39:40.899Z,78.97
2019-03-20T07:40:16.412Z,63.25
2019-03-20T07:40:51.937Z,70.03
2019-03-20T07:41:27.702Z,62.08
2019-03-20T07:42:03.237Z,55.33
2019-03-20T07:42:38.897Z,59.23
2019-03-20T07:43:14.563Z,65.87
2019-03-20T07:43:50.324Z,66.77
2019-03-20T07:44:25.770Z,64.40
2019-03-20T07:45:01.452Z,66.90
2019-03-20T07:45:37.021Z,66.15
2019-03-20T07:46:12.565Z,70.70
2019-03-20T07:46:48.184Z,69.87
2019-03-20T07:47:23.854Z,65.25
2019-03-20T07:47:59.500Z,66.45
2019-03-20T07:48:35.151Z,70.28
2019-03-20T07:49:10.744Z,67.10
2019-03-20T07:49:46.345Z,63.05